Time;durP1;ratioP1;P1;durP2;ratioP2;P2;SDS_P1;SDS_P2;PMS_P1;PMS_P2;Temp;Humidity;BMP_temperature;BMP_pressure;BME280_temperature;BME280_humidity;BME280_pressure;Samples;Min_cycle;Max_cycle;Signal;HPM_P1;HPM_P2
2021/01/21 00:01:50;;;;;;;5.13;0.50;;;9.80;84.90;;;;;;5033404;28;20055;-87
2021/01/21 00:04:16;;;;;;;3.17;0.70;;;9.80;84.90;;;;;;4998978;28;20059;-87
2021/01/21 00:06:43;;;;;;;2.70;1.00;;;9.80;84.70;;;;;;5028808;28;20087;-84
2021/01/21 00:09:12;;;;;;;3.63;1.13;;;9.80;84.50;;;;;;5043694;28;20067;-87
2021/01/21 00:11:42;;;;;;;2.35;0.60;;;9.90;84.60;;;;;;5048159;28;20041;-88
2021/01/21 00:14:09;;;;;;;3.97;0.50;;;9.90;84.40;;;;;;5011412;28;20037;-88
2021/01/21 00:16:36;;;;;;;1.58;0.40;;;9.90;84.20;;;;;;5028981;28;20033;-88
2021/01/21 00:19:02;;;;;;;2.67;0.77;;;10.00;84.20;;;;;;5031384;28;20419;-88
2021/01/21 00:21:29;;;;;;;3.92;0.50;;;10.00;84.00;;;;;;5031855;28;20036;-87
2021/01/21 00:23:58;;;;;;;2.97;0.40;;;10.00;84.00;;;;;;5014903;28;20043;-87
2021/01/21 00:26:25;;;;;;;2.35;0.45;;;10.00;83.70;;;;;;5045772;28;20484;-88
2021/01/21 00:28:53;;;;;;;2.17;0.40;;;10.00;83.70;;;;;;5033005;28;20422;-87
2021/01/21 00:31:19;;;;;;;3.00;0.47;;;10.00;83.50;;;;;;5031771;28;20032;-88
2021/01/21 00:33:46;;;;;;;4.30;0.60;;;10.00;83.70;;;;;;5035439;28;20039;-88
2021/01/21 00:36:13;;;;;;;2.92;0.40;;;10.00;83.80;;;;;;5017521;28;20235;-89
2021/01/21 00:38:40;;;;;;;1.73;0.40;;;10.00;83.60;;;;;;5019052;28;20041;-88
2021/01/21 00:41:07;;;;;;;2.33;0.43;;;9.90;83.80;;;;;;5034890;28;20052;-89
2021/01/21 00:43:33;;;;;;;4.60;0.50;;;9.90;83.90;;;;;;5050980;28;20519;-89
2021/01/21 00:46:00;;;;;;;3.67;0.40;;;9.90;83.90;;;;;;5034152;28;20530;-89
2021/01/21 00:48:27;;;;;;;2.63;0.80;;;9.80;84.00;;;;;;5038327;28;20040;-88
2021/01/21 00:50:54;;;;;;;2.13;0.50;;;9.80;84.00;;;;;;5052956;28;20048;-87
2021/01/21 00:53:21;;;;;;;2.88;0.63;;;9.80;84.00;;;;;;5018713;28;20043;-86
2021/01/21 00:55:47;;;;;;;3.33;0.50;;;9.80;84.10;;;;;;5001647;28;20043;-88
2021/01/21 00:58:14;;;;;;;3.35;0.40;;;9.80;84.20;;;;;;5041490;28;20036;-88
2021/01/21 01:00:41;;;;;;;2.05;0.38;;;9.80;84.10;;;;;;5035562;28;20055;-88
2021/01/21 01:03:08;;;;;;;1.67;0.40;;;9.80;84.10;;;;;;5038899;28;20059;-88
2021/01/21 01:05:41;;;;;;;4.45;0.40;;;9.90;84.40;;;;;;5034691;28;20047;-87
2021/01/21 01:08:08;;;;;;;3.47;0.40;;;10.00;83.50;;;;;;5034836;28;20478;-87
2021/01/21 01:10:34;;;;;;;4.30;0.70;;;10.00;83.20;;;;;;5019000;28;20040;-89
2021/01/21 01:13:10;;;;;;;3.35;0.50;;;10.10;83.00;;;;;;5033599;28;20037;-88
2021/01/21 01:15:38;;;;;;;1.65;0.40;;;10.20;82.50;;;;;;5048974;28;20809;-89
2021/01/21 01:18:06;;;;;;;2.70;0.30;;;10.10;82.20;;;;;;4998550;28;20039;-91
2021/01/21 01:20:38;;;;;;;4.53;0.68;;;10.10;82.40;;;;;;5032951;28;20040;-92
2021/01/21 01:23:07;;;;;;;2.85;0.60;;;10.10;82.40;;;;;;5034917;28;20032;-87
2021/01/21 01:25:35;;;;;;;3.72;0.47;;;10.10;82.60;;;;;;5065659;28;20036;-86
2021/01/21 01:28:02;;;;;;;2.28;0.43;;;10.10;82.50;;;;;;5014458;28;20881;-88
2021/01/21 01:30:29;;;;;;;3.38;0.50;;;10.10;82.40;;;;;;5017290;28;20048;-87
2021/01/21 01:32:55;;;;;;;2.75;0.52;;;10.10;82.10;;;;;;5005272;28;20032;-87
2021/01/21 01:35:23;;;;;;;3.38;0.40;;;10.20;81.90;;;;;;5024160;28;20395;-87
2021/01/21 01:37:52;;;;;;;3.95;0.50;;;10.20;82.30;;;;;;5034640;28;20051;-86
2021/01/21 01:40:21;;;;;;;1.98;0.50;;;10.30;81.20;;;;;;5031503;28;20048;-87
2021/01/21 01:42:51;;;;;;;3.65;0.70;;;10.30;81.30;;;;;;5040510;28;20045;-88
2021/01/21 01:45:21;;;;;;;3.05;0.40;;;10.40;81.00;;;;;;5018289;28;20036;-88
2021/01/21 01:47:50;;;;;;;5.68;0.40;;;10.40;80.70;;;;;;5032761;28;20051;-88
2021/01/21 01:50:31;;;;;;;3.35;0.50;;;10.40;80.40;;;;;;5022350;28;20040;-90
2021/01/21 01:53:14;;;;;;;2.28;0.38;;;10.40;80.00;;;;;;5138709;27;20110;-88
2021/01/21 01:55:45;;;;;;;3.67;0.80;;;10.40;79.90;;;;;;5100920;28;20031;-89
2021/01/21 01:58:35;;;;;;;9.55;1.73;;;10.50;79.30;;;;;;5080784;28;20044;-87
2021/01/21 02:01:14;;;;;;;3.33;0.70;;;10.60;79.20;;;;;;5082218;28;20043;-85
2021/01/21 02:03:41;;;;;;;3.35;0.50;;;10.60;79.50;;;;;;5082420;28;20047;-83
2021/01/21 02:06:23;;;;;;;2.40;0.50;;;10.60;78.50;;;;;;5086775;28;20047;-85
2021/01/21 02:08:51;;;;;;;3.65;0.60;;;10.60;78.60;;;;;;5070237;28;20053;-88
2021/01/21 02:11:40;;;;;;;4.95;0.60;;;10.70;78.50;;;;;;5102874;28;20502;-87
2021/01/21 02:14:48;;;;;;;3.10;0.50;;;10.70;78.70;;;;;;5088427;28;20031;-84
2021/01/21 02:17:28;;;;;;;2.53;0.40;;;10.70;78.30;;;;;;5082671;28;20034;-87
2021/01/21 02:20:32;;;;;;;4.90;0.50;;;10.70;77.90;;;;;;5106017;28;20032;-86
2021/01/21 02:23:27;;;;;;;2.20;0.50;;;10.80;77.40;;;;;;5088946;28;20047;-86
2021/01/21 02:26:03;;;;;;;6.00;1.77;;;10.80;77.70;;;;;;5094218;28;20044;-89
2021/01/21 02:29:03;;;;;;;3.72;1.20;;;10.80;79.40;;;;;;5086224;28;20025;-88
2021/01/21 02:31:39;;;;;;;4.00;0.75;;;10.70;81.10;;;;;;5074515;28;20032;-82
2021/01/21 02:34:40;;;;;;;2.95;0.40;;;10.60;82.20;;;;;;5106254;28;20036;-83
2021/01/21 02:37:18;;;;;;;2.65;0.38;;;10.50;82.80;;;;;;5102701;28;21270;-85
2021/01/21 02:39:59;;;;;;;2.50;0.40;;;10.40;82.70;;;;;;5103004;28;20020;-83
2021/01/21 02:42:28;;;;;;;2.05;0.40;;;10.40;82.80;;;;;;5103013;28;20028;-77
2021/01/21 02:44:55;;;;;;;5.00;0.50;;;10.40;83.50;;;;;;5083827;28;20043;-78
2021/01/21 02:47:26;;;;;;;4.53;0.60;;;10.40;83.00;;;;;;5081194;28;20048;-78
2021/01/21 02:49:52;;;;;;;2.10;0.70;;;10.40;83.30;;;;;;5098764;28;20048;-80
2021/01/21 02:52:33;;;;;;;3.15;0.40;;;10.40;83.30;;;;;;5065646;28;21050;-81
2021/01/21 02:55:07;;;;;;;3.83;0.55;;;10.40;83.20;;;;;;5100987;28;20023;-78
2021/01/21 02:57:57;;;;;;;5.18;0.55;;;10.40;83.30;;;;;;5071406;28;20040;-78
2021/01/21 03:00:25;;;;;;;2.10;0.50;;;10.40;83.40;;;;;;5069116;28;20050;-80
2021/01/21 03:02:57;;;;;;;2.78;0.40;;;10.40;83.60;;;;;;5069656;28;20047;-76
2021/01/21 03:05:28;;;;;;;2.88;0.50;;;10.40;83.90;;;;;;5086479;28;20036;-86
2021/01/21 03:07:56;;;;;;;3.40;0.50;;;10.40;83.70;;;;;;5089902;28;20486;-83
2021/01/21 03:10:22;;;;;;;2.95;0.50;;;10.50;83.80;;;;;;5091393;28;20502;-83
2021/01/21 03:13:07;;;;;;;3.55;0.50;;;10.50;83.80;;;;;;5090403;28;20513;-84
2021/01/21 03:15:44;;;;;;;1.58;0.40;;;10.50;83.60;;;;;;5073573;28;20040;-80
2021/01/21 03:18:15;;;;;;;2.05;0.30;;;10.60;83.30;;;;;;5058307;28;20023;-84
2021/01/21 03:20:42;;;;;;;4.13;0.50;;;10.60;83.00;;;;;;5073773;28;20036;-81
2021/01/21 03:23:12;;;;;;;3.15;0.40;;;10.70;83.60;;;;;;5072328;28;20056;-83
2021/01/21 03:25:49;;;;;;;2.22;0.50;;;10.70;83.50;;;;;;5057494;28;20040;-83
2021/01/21 03:28:17;;;;;;;1.30;0.43;;;10.70;83.70;;;;;;5065029;28;20036;-84
2021/01/21 03:30:43;;;;;;;4.75;0.40;;;10.70;83.70;;;;;;5073238;28;20055;-84
2021/01/21 03:33:10;;;;;;;2.78;0.55;;;10.70;84.10;;;;;;5074061;28;20051;-84
2021/01/21 03:35:43;;;;;;;2.00;0.45;;;10.80;84.40;;;;;;5073601;28;20040;-85
2021/01/21 03:38:12;;;;;;;2.33;0.40;;;10.80;84.20;;;;;;5088866;28;20368;-81
2021/01/21 03:40:59;;;;;;;2.40;0.43;;;10.80;84.20;;;;;;5089765;28;20048;-79
2021/01/21 03:43:30;;;;;;;1.13;0.30;;;10.80;84.80;;;;;;5042562;28;20048;-84
2021/01/21 03:46:14;;;;;;;2.95;0.50;;;10.90;85.40;;;;;;5073898;28;20044;-85
2021/01/21 03:48:42;;;;;;;1.63;0.40;;;10.80;85.50;;;;;;5072412;28;20041;-84
2021/01/21 03:51:28;;;;;;;2.20;0.40;;;10.90;85.50;;;;;;5080975;28;20044;-85
2021/01/21 03:54:08;;;;;;;1.20;0.40;;;10.80;85.40;;;;;;5076160;28;20032;-86
2021/01/21 03:56:35;;;;;;;4.30;0.40;;;10.80;85.20;;;;;;5055752;28;20040;-84
2021/01/21 03:59:01;;;;;;;1.50;0.40;;;10.90;84.40;;;;;;5074214;28;20036;-85
2021/01/21 04:01:29;;;;;;;1.27;0.40;;;11.00;84.20;;;;;;5055650;28;20479;-83
2021/01/21 04:03:58;;;;;;;2.13;0.32;;;11.00;84.10;;;;;;5072214;28;20025;-83
2021/01/21 04:06:26;;;;;;;1.92;0.40;;;11.10;83.80;;;;;;5069884;28;20044;-81
2021/01/21 04:09:00;;;;;;;1.00;0.30;;;11.20;83.90;;;;;;5081022;28;20063;-85
2021/01/21 04:11:34;;;;;;;1.75;0.35;;;11.20;83.80;;;;;;5072686;28;21385;-83
2021/01/21 04:14:05;;;;;;;1.52;0.30;;;11.20;84.20;;;;;;5072860;28;20036;-85
2021/01/21 04:16:33;;;;;;;2.42;0.40;;;11.20;85.10;;;;;;5088431;28;20047;-81
2021/01/21 04:19:00;;;;;;;2.42;0.40;;;11.10;86.50;;;;;;5090355;28;20033;-81
2021/01/21 04:21:27;;;;;;;1.58;0.43;;;11.00;87.30;;;;;;5056433;28;20036;-81
2021/01/21 04:24:02;;;;;;;1.73;0.30;;;11.00;87.90;;;;;;5050026;28;20033;-84
2021/01/21 04:26:38;;;;;;;1.50;0.40;;;10.90;88.80;;;;;;5086266;28;20062;-85
2021/01/21 04:29:05;;;;;;;7.10;0.80;;;10.80;89.50;;;;;;5056166;28;20059;-83
2021/01/21 04:31:33;;;;;;;3.13;0.30;;;10.80;90.70;;;;;;5055868;28;20039;-84
2021/01/21 04:34:09;;;;;;;5.07;0.20;;;10.40;91.00;;;;;;5071996;28;20036;-82
2021/01/21 04:36:36;;;;;;;4.68;0.30;;;9.70;90.60;;;;;;5072150;28;20043;-82
2021/01/21 04:39:09;;;;;;;2.70;0.30;;;9.00;91.30;;;;;;5038671;28;20044;-85
2021/01/21 04:41:43;;;;;;;5.20;0.40;;;8.60;92.10;;;;;;5069732;28;20033;-82
2021/01/21 04:44:21;;;;;;;2.60;0.20;;;8.30;92.80;;;;;;5057927;28;20032;-81
2021/01/21 04:46:54;;;;;;;2.15;0.20;;;8.00;93.00;;;;;;5087329;28;20032;-84
2021/01/21 04:49:25;;;;;;;3.10;0.20;;;7.80;93.20;;;;;;5040408;28;20126;-85
2021/01/21 04:52:01;;;;;;;3.58;0.35;;;7.70;93.40;;;;;;5074861;28;20056;-85
2021/01/21 04:54:47;;;;;;;0.82;0.20;;;7.50;93.40;;;;;;5073412;28;20035;-82
2021/01/21 04:57:28;;;;;;;1.25;0.20;;;7.40;93.50;;;;;;5071298;28;20063;-82
2021/01/21 05:00:05;;;;;;;3.05;0.13;;;7.30;93.60;;;;;;5068131;28;20032;-83
2021/01/21 05:02:54;;;;;;;3.17;0.73;;;7.20;93.60;;;;;;5087388;28;20055;-85
2021/01/21 05:05:51;;;;;;;3.28;0.20;;;7.10;93.70;;;;;;5033861;28;20040;-79
2021/01/21 05:08:18;;;;;;;4.05;0.30;;;7.00;94.00;;;;;;5067070;28;20390;-81
2021/01/21 05:11:05;;;;;;;3.08;0.30;;;6.90;94.10;;;;;;5081472;28;20086;-81
2021/01/21 05:13:46;;;;;;;4.00;0.35;;;6.90;94.30;;;;;;5082607;28;20056;-82
2021/01/21 05:16:39;;;;;;;3.60;0.28;;;6.80;94.40;;;;;;5046292;28;20504;-82
2021/01/21 05:19:46;;;;;;;3.10;0.30;;;6.70;94.50;;;;;;5072715;28;20115;-89
2021/01/21 05:22:59;;;;;;;6.75;0.65;;;6.70;94.60;;;;;;5073506;28;20044;-86
2021/01/21 05:26:13;;;;;;;1.85;0.20;;;6.70;94.60;;;;;;5082132;28;20052;-88
2021/01/21 05:28:59;;;;;;;2.83;0.20;;;6.60;94.50;;;;;;5077377;28;20052;-84
2021/01/21 05:31:39;;;;;;;3.83;0.20;;;6.60;94.50;;;;;;5060644;28;20032;-81
2021/01/21 05:34:11;;;;;;;3.83;0.20;;;6.60;94.60;;;;;;5066079;28;20028;-83
2021/01/21 05:37:16;;;;;;;2.80;0.30;;;6.60;94.70;;;;;;5076591;28;20036;-87
2021/01/21 05:40:03;;;;;;;4.00;0.30;;;6.60;94.70;;;;;;5063505;28;20046;-83
2021/01/21 05:42:50;;;;;;;3.20;0.40;;;6.50;94.60;;;;;;5067231;28;20032;-86
2021/01/21 05:45:37;;;;;;;5.20;0.30;;;6.50;94.50;;;;;;5067438;28;20048;-84
2021/01/21 05:48:10;;;;;;;4.68;0.40;;;6.50;94.40;;;;;;5049845;28;20053;-86
2021/01/21 05:50:40;;;;;;;8.02;0.40;;;6.50;94.50;;;;;;5080860;28;20036;-83
2021/01/21 05:53:12;;;;;;;5.40;0.50;;;6.50;94.30;;;;;;5099983;28;20048;-86
2021/01/21 05:55:45;;;;;;;4.82;0.40;;;6.50;94.40;;;;;;5051473;28;20040;-85
2021/01/21 05:58:15;;;;;;;5.10;0.30;;;6.50;94.60;;;;;;5051390;28;20044;-82
2021/01/21 06:00:43;;;;;;;6.63;0.50;;;6.50;94.30;;;;;;5067950;28;20403;-82
2021/01/21 06:03:32;;;;;;;6.30;0.40;;;6.50;94.40;;;;;;5084941;28;20046;-81
2021/01/21 06:06:06;;;;;;;7.70;0.70;;;6.50;94.30;;;;;;5062325;28;20040;-82
2021/01/21 06:08:40;;;;;;;7.22;0.60;;;6.50;94.00;;;;;;5053475;28;20835;-84
2021/01/21 06:11:08;;;;;;;4.53;0.40;;;6.60;94.10;;;;;;5083881;28;20055;-83
2021/01/21 06:13:37;;;;;;;3.25;0.30;;;6.60;94.00;;;;;;5083978;28;20059;-83
2021/01/21 06:16:06;;;;;;;3.60;0.40;;;6.60;94.10;;;;;;5083406;28;20048;-83
2021/01/21 06:18:33;;;;;;;6.28;0.63;;;6.60;94.10;;;;;;5057790;28;20028;-86
2021/01/21 06:21:25;;;;;;;6.85;0.50;;;6.50;94.10;;;;;;5039929;28;20056;-84
2021/01/21 06:24:04;;;;;;;8.53;0.53;;;6.50;94.20;;;;;;5037093;28;20040;-84
2021/01/21 06:26:49;;;;;;;6.13;0.50;;;6.50;94.20;;;;;;5082278;28;20282;-85
2021/01/21 06:29:21;;;;;;;10.73;0.50;;;6.50;94.10;;;;;;5052828;28;20486;-86
2021/01/21 06:31:53;;;;;;;9.40;0.95;;;6.50;94.10;;;;;;5084619;28;20052;-85
2021/01/21 06:34:25;;;;;;;8.10;0.50;;;6.50;93.80;;;;;;5069624;28;20043;-82
2021/01/21 06:37:49;;;;;;;;;;;;;;;;;;;;;
2021/01/21 06:40:23;;;;;;;8.93;0.60;;;6.50;93.10;;;;;;5078286;28;20580;-82
2021/01/21 06:43:14;;;;;;;5.55;0.52;;;6.50;92.90;;;;;;5076192;28;20067;-85
2021/01/21 06:45:42;;;;;;;9.60;0.73;;;6.40;92.50;;;;;;5069099;28;20043;-84
2021/01/21 06:48:12;;;;;;;5.97;1.52;;;6.40;92.60;;;;;;5038918;28;20051;-81
2021/01/21 06:50:41;;;;;;;9.40;0.70;;;6.30;92.50;;;;;;5074881;28;20051;-79
2021/01/21 06:53:10;;;;;;;7.25;0.60;;;6.30;92.50;;;;;;5069082;28;20048;-84
2021/01/21 06:55:39;;;;;;;6.30;0.85;;;6.30;92.40;;;;;;5068799;28;20032;-82
2021/01/21 06:58:09;;;;;;;6.13;0.75;;;6.30;92.30;;;;;;5068949;28;20059;-81
2021/01/21 07:00:38;;;;;;;8.85;0.70;;;6.20;92.10;;;;;;5065623;28;20044;-82
2021/01/21 07:03:05;;;;;;;5.70;0.68;;;6.20;91.80;;;;;;5051248;28;20039;-85
2021/01/21 07:05:32;;;;;;;6.63;0.73;;;6.20;91.60;;;;;;5086521;28;20035;-86
2021/01/21 07:08:00;;;;;;;6.38;0.65;;;6.20;91.40;;;;;;5070700;28;20655;-83
2021/01/21 07:10:36;;;;;;;8.93;0.65;;;6.20;91.10;;;;;;5070439;28;20044;-83
2021/01/21 07:13:13;;;;;;;8.07;0.90;;;6.20;91.10;;;;;;5068133;28;20047;-83
2021/01/21 07:15:44;;;;;;;6.25;0.70;;;6.20;90.50;;;;;;5082676;28;20375;-82
2021/01/21 07:18:14;;;;;;;5.27;0.60;;;6.20;90.60;;;;;;5084052;28;20039;-81
2021/01/21 07:20:59;;;;;;;7.00;0.55;;;6.10;90.80;;;;;;5069050;28;20496;-82
2021/01/21 07:23:44;;;;;;;9.82;0.70;;;6.10;90.70;;;;;;5062611;28;20176;-81
2021/01/21 07:26:34;;;;;;;6.07;0.60;;;6.10;90.80;;;;;;5067047;28;20848;-81
2021/01/21 07:29:04;;;;;;;5.03;0.50;;;6.10;90.80;;;;;;5079523;28;20064;-81
2021/01/21 07:32:04;;;;;;;5.75;0.52;;;6.10;90.60;;;;;;5054280;28;20042;-81
2021/01/21 07:34:40;;;;;;;13.63;0.63;;;6.00;90.40;;;;;;5070511;28;20044;-81
2021/01/21 07:37:15;;;;;;;8.07;0.60;;;5.90;90.30;;;;;;5085928;28;20040;-81
2021/01/21 07:39:52;;;;;;;6.30;0.45;;;5.80;90.40;;;;;;5069612;28;20051;-88
2021/01/21 07:42:19;;;;;;;9.70;0.60;;;5.80;90.50;;;;;;5084345;28;20041;-85
2021/01/21 07:44:53;;;;;;;5.13;0.55;;;5.70;90.50;;;;;;5068342;28;20051;-85
2021/01/21 07:47:33;;;;;;;8.33;1.13;;;5.60;90.50;;;;;;5076161;28;20067;-85
2021/01/21 07:52:52;;;;;;;5.68;0.68;;;5.50;91.00;;;;;;5104286;28;20500;-85
2021/01/21 07:55:28;;;;;;;11.60;2.53;;;5.50;90.90;;;;;;5070500;28;20043;-84
2021/01/21 07:58:13;;;;;;;8.00;1.83;;;5.50;90.90;;;;;;5072644;28;20406;-85
2021/01/21 08:00:40;;;;;;;7.05;1.15;;;5.50;91.00;;;;;;5068803;28;20046;-85
2021/01/21 08:03:07;;;;;;;4.95;0.52;;;5.50;90.90;;;;;;5068989;28;20048;-83
2021/01/21 08:05:33;;;;;;;8.80;0.82;;;5.60;90.90;;;;;;5068029;28;20736;-84
2021/01/21 08:08:05;;;;;;;12.05;1.30;;;5.60;90.70;;;;;;5065215;28;20503;-84
2021/01/21 08:10:37;;;;;;;11.35;0.60;;;5.60;90.70;;;;;;5072452;28;20036;-81
2021/01/21 08:13:05;;;;;;;11.05;1.05;;;5.60;90.60;;;;;;5066420;28;20059;-81
2021/01/21 08:15:33;;;;;;;8.70;0.88;;;5.60;90.50;;;;;;5085254;28;20049;-81
2021/01/21 08:18:00;;;;;;;8.93;0.82;;;5.60;90.50;;;;;;5076809;28;20511;-81
2021/01/21 08:20:29;;;;;;;7.70;0.63;;;5.60;90.50;;;;;;5068614;28;20036;-80
2021/01/21 08:23:00;;;;;;;12.43;0.90;;;5.60;90.70;;;;;;5084599;28;20028;-80
2021/01/21 08:25:30;;;;;;;9.25;1.23;;;5.70;90.70;;;;;;5068847;28;20410;-80
2021/01/21 08:27:57;;;;;;;12.50;0.80;;;5.70;90.70;;;;;;5066864;28;20044;-79
2021/01/21 08:30:25;;;;;;;7.45;0.80;;;5.80;90.60;;;;;;5068031;28;20039;-81
2021/01/21 08:33:08;;;;;;;8.98;0.75;;;5.90;90.50;;;;;;5067472;28;20032;-80
2021/01/21 08:35:51;;;;;;;9.20;1.20;;;6.00;90.50;;;;;;5065362;28;20047;-80
2021/01/21 08:38:21;;;;;;;8.95;1.58;;;6.00;90.40;;;;;;5084944;28;20028;-80
2021/01/21 08:40:50;;;;;;;9.77;1.05;;;6.00;90.40;;;;;;5082359;28;20035;-80
2021/01/21 08:43:18;;;;;;;12.20;1.75;;;6.00;90.50;;;;;;5068682;28;20035;-80
2021/01/21 08:45:45;;;;;;;11.02;2.00;;;6.00;90.40;;;;;;5067063;28;20036;-80
2021/01/21 08:48:31;;;;;;;10.57;1.80;;;6.00;90.50;;;;;;5067584;28;20048;-80
2021/01/21 08:50:58;;;;;;;8.38;1.63;;;6.00;90.20;;;;;;5049099;28;20036;-79
2021/01/21 08:53:30;;;;;;;16.60;4.32;;;6.10;90.20;;;;;;5068017;28;20056;-79
2021/01/21 08:55:57;;;;;;;16.90;4.20;;;6.00;90.00;;;;;;5082314;28;20043;-79
2021/01/21 08:58:33;;;;;;;11.75;1.50;;;6.10;90.20;;;;;;5084813;28;20904;-79
2021/01/21 09:01:11;;;;;;;10.52;1.70;;;6.10;90.30;;;;;;5084868;28;20073;-80
2021/01/21 09:03:51;;;;;;;19.58;1.98;;;6.10;90.40;;;;;;5084884;28;21237;-79
2021/01/21 09:06:19;;;;;;;8.38;1.00;;;6.20;90.40;;;;;;5079429;28;20071;-79
2021/01/21 09:08:51;;;;;;;10.45;0.70;;;6.30;90.30;;;;;;5061703;28;20050;-79
2021/01/21 09:11:38;;;;;;;14.55;0.98;;;6.30;90.40;;;;;;5067122;28;20455;-79
2021/01/21 09:14:15;;;;;;;12.32;1.10;;;6.40;90.60;;;;;;5085066;28;20039;-79
2021/01/21 09:16:49;;;;;;;10.35;0.80;;;6.50;90.60;;;;;;5044204;28;20036;-80
2021/01/21 09:19:40;;;;;;;12.07;1.10;;;6.60;90.60;;;;;;5065184;28;20487;-79
2021/01/21 09:22:09;;;;;;;12.43;0.70;;;6.60;90.60;;;;;;5074681;28;20059;-79
2021/01/21 09:24:58;;;;;;;7.97;1.10;;;6.70;90.60;;;;;;5084266;28;20046;-78
2021/01/21 09:27:25;;;;;;;11.20;1.25;;;6.80;90.70;;;;;;5070939;28;20036;-79
2021/01/21 09:29:55;;;;;;;7.90;0.98;;;6.80;90.80;;;;;;5065843;28;20047;-79
2021/01/21 09:32:43;;;;;;;10.95;0.65;;;6.90;90.80;;;;;;5051533;28;20036;-80
2021/01/21 09:35:23;;;;;;;7.15;0.82;;;7.00;90.60;;;;;;5065754;28;20375;-85
2021/01/21 09:37:54;;;;;;;11.32;1.13;;;7.10;90.60;;;;;;5066236;28;20804;-79
2021/01/21 09:40:26;;;;;;;9.45;0.75;;;7.20;90.60;;;;;;5050386;28;20478;-81
2021/01/21 09:42:58;;;;;;;11.15;1.05;;;7.20;90.60;;;;;;5061670;28;20028;-79
2021/01/21 09:45:27;;;;;;;13.23;1.10;;;7.20;90.70;;;;;;5056412;28;20514;-79
2021/01/21 09:47:54;;;;;;;6.18;0.65;;;7.30;90.60;;;;;;5082210;28;20051;-79
2021/01/21 09:50:21;;;;;;;7.90;0.82;;;7.30;90.50;;;;;;5067235;28;20028;-79
2021/01/21 09:52:48;;;;;;;9.35;0.90;;;7.40;90.40;;;;;;5050139;28;20055;-79
2021/01/21 09:55:15;;;;;;;11.63;1.15;;;7.40;90.20;;;;;;5066759;28;20049;-80
2021/01/21 09:57:42;;;;;;;13.55;1.00;;;7.40;90.30;;;;;;5061409;28;20033;-80
2021/01/21 10:00:12;;;;;;;11.48;1.02;;;7.50;90.30;;;;;;5096266;28;20045;-80
2021/01/21 10:02:41;;;;;;;14.00;0.98;;;7.60;90.30;;;;;;5061498;28;20830;-80
2021/01/21 10:05:08;;;;;;;12.45;1.10;;;7.70;90.00;;;;;;5080882;28;20387;-80
2021/01/21 10:07:35;;;;;;;11.52;0.85;;;7.80;89.80;;;;;;5061084;28;20040;-80
2021/01/21 10:10:02;;;;;;;14.32;0.82;;;7.90;89.50;;;;;;5064876;28;20044;-80
2021/01/21 10:12:28;;;;;;;8.07;0.70;;;8.00;89.20;;;;;;5066636;28;20819;-80
2021/01/21 10:14:56;;;;;;;10.90;0.90;;;8.20;89.20;;;;;;5053509;28;20049;-80
2021/01/21 10:17:24;;;;;;;7.40;0.85;;;8.40;88.90;;;;;;5102508;28;20048;-80
2021/01/21 10:19:51;;;;;;;9.05;1.52;;;8.50;87.90;;;;;;5071755;28;20059;-80
2021/01/21 10:22:18;;;;;;;6.97;0.60;;;8.70;88.20;;;;;;5069987;28;20032;-86
2021/01/21 10:24:46;;;;;;;11.13;1.27;;;8.80;87.20;;;;;;5069266;28;20041;-90
2021/01/21 10:27:13;;;;;;;11.27;1.30;;;9.00;86.20;;;;;;5084682;28;20107;-86
2021/01/21 10:29:39;;;;;;;12.13;1.50;;;9.10;85.40;;;;;;5065057;28;20028;-91
2021/01/21 10:32:06;;;;;;;9.60;2.05;;;9.10;83.70;;;;;;5037881;28;20513;-92
2021/01/21 10:34:33;;;;;;;10.15;1.45;;;9.10;83.50;;;;;;5036746;28;20070;-81
2021/01/21 10:37:02;;;;;;;9.88;0.70;;;9.20;83.60;;;;;;5074681;28;20054;-82
2021/01/21 10:39:29;;;;;;;10.30;1.17;;;9.20;82.40;;;;;;5053604;28;20059;-79
2021/01/21 10:41:55;;;;;;;4.97;0.63;;;9.30;82.80;;;;;;5085513;28;20056;-81
2021/01/21 10:44:22;;;;;;;9.80;1.25;;;9.30;82.20;;;;;;5086495;28;20052;-82
2021/01/21 10:46:49;;;;;;;8.80;0.80;;;9.20;82.20;;;;;;5087040;28;20383;-81
2021/01/21 10:49:16;;;;;;;4.40;0.50;;;9.10;81.90;;;;;;5086051;28;20036;-80
2021/01/21 10:51:43;;;;;;;8.32;1.48;;;9.00;82.10;;;;;;5081451;28;20068;-82
2021/01/21 10:54:09;;;;;;;8.20;1.30;;;8.90;82.40;;;;;;5076308;28;20035;-89
2021/01/21 10:56:36;;;;;;;9.90;1.92;;;8.90;83.20;;;;;;5047147;28;20029;-87
2021/01/21 10:59:05;;;;;;;6.68;0.70;;;8.80;82.40;;;;;;5060117;28;20047;-80
2021/01/21 11:01:32;;;;;;;5.43;0.70;;;8.70;82.70;;;;;;5084680;28;20036;-80
2021/01/21 11:03:59;;;;;;;4.38;0.50;;;8.70;83.20;;;;;;5080550;28;20044;-80
2021/01/21 11:06:25;;;;;;;7.50;0.70;;;8.70;83.30;;;;;;5079079;28;20043;-81
2021/01/21 11:08:52;;;;;;;11.30;1.15;;;8.80;82.80;;;;;;5072895;28;20094;-81
2021/01/21 11:11:18;;;;;;;6.90;0.70;;;8.70;82.30;;;;;;5070373;28;20761;-81
2021/01/21 11:13:45;;;;;;;7.40;0.77;;;8.80;82.70;;;;;;5086552;28;20062;-81
2021/01/21 11:16:11;;;;;;;9.88;0.70;;;8.80;82.90;;;;;;5067619;28;20422;-80
2021/01/21 11:18:38;;;;;;;5.63;0.68;;;8.80;83.00;;;;;;5073838;28;20044;-81
2021/01/21 11:21:05;;;;;;;9.88;0.70;;;8.70;83.10;;;;;;5051353;28;20029;-83
2021/01/21 11:23:31;;;;;;;11.20;0.70;;;8.70;83.30;;;;;;5069806;28;20054;-83
2021/01/21 11:25:58;;;;;;;4.60;0.60;;;8.70;83.20;;;;;;5067783;28;20055;-83
2021/01/21 11:28:24;;;;;;;5.70;0.50;;;8.70;82.80;;;;;;5052356;28;20044;-83
2021/01/21 11:30:51;;;;;;;10.50;0.70;;;8.70;83.00;;;;;;5069725;28;20074;-81
2021/01/21 11:33:18;;;;;;;6.40;0.50;;;8.70;83.00;;;;;;5035784;28;20045;-81
2021/01/21 11:35:46;;;;;;;7.38;0.80;;;8.60;82.80;;;;;;5086209;28;20379;-82
2021/01/21 11:38:14;;;;;;;6.50;0.55;;;8.60;83.10;;;;;;5069916;28;20510;-78
2021/01/21 11:40:41;;;;;;;8.52;0.80;;;8.60;83.00;;;;;;5068191;28;20043;-77
2021/01/21 11:43:10;;;;;;;7.63;0.68;;;8.60;83.00;;;;;;5067377;28;20040;-82
2021/01/21 11:45:37;;;;;;;6.35;0.70;;;8.60;83.10;;;;;;5069849;28;20032;-81
2021/01/21 11:48:05;;;;;;;12.73;0.70;;;8.70;83.60;;;;;;5086441;28;20360;-91
2021/01/21 11:50:32;;;;;;;9.30;0.60;;;8.70;82.80;;;;;;5063844;28;20028;-88
2021/01/21 11:52:59;;;;;;;5.82;0.60;;;8.70;82.60;;;;;;5069470;28;20055;-83
2021/01/21 11:55:26;;;;;;;7.65;0.80;;;8.80;82.60;;;;;;5086537;28;20048;-83
2021/01/21 11:57:53;;;;;;;5.63;0.60;;;8.80;82.60;;;;;;5077271;28;20036;-84
2021/01/21 12:00:20;;;;;;;5.72;1.00;;;8.80;82.10;;;;;;5068314;28;20044;-85
2021/01/21 12:02:46;;;;;;;6.40;0.65;;;8.80;82.30;;;;;;5069363;28;20040;-83
2021/01/21 12:05:13;;;;;;;7.93;0.90;;;8.80;82.40;;;;;;5056840;28;20047;-86
2021/01/21 12:07:40;;;;;;;7.22;0.60;;;8.90;81.80;;;;;;5073953;28;20077;-84
2021/01/21 12:10:07;;;;;;;5.22;0.75;;;9.00;81.60;;;;;;5039569;28;20481;-82
2021/01/21 12:12:34;;;;;;;7.57;0.70;;;9.10;81.60;;;;;;5068282;28;20044;-81
2021/01/21 12:15:04;;;;;;;7.72;1.17;;;9.10;81.80;;;;;;5064393;28;20040;-80
2021/01/21 12:17:30;;;;;;;6.47;0.60;;;9.20;81.80;;;;;;5100067;28;20067;-83
2021/01/21 12:19:57;;;;;;;9.05;0.70;;;9.30;81.20;;;;;;5085601;28;20510;-87
2021/01/21 12:22:23;;;;;;;6.40;0.63;;;9.40;81.20;;;;;;5083884;28;20044;-87
2021/01/21 12:24:50;;;;;;;7.47;0.57;;;9.40;81.40;;;;;;5067413;28;20029;-86
2021/01/21 12:27:17;;;;;;;8.32;0.70;;;9.40;81.40;;;;;;5054322;28;20036;-87
2021/01/21 12:29:43;;;;;;;8.02;0.77;;;9.40;80.80;;;;;;5035923;28;20502;-80
2021/01/21 12:32:10;;;;;;;6.22;0.90;;;9.40;80.30;;;;;;5068250;28;20041;-80
2021/01/21 12:34:36;;;;;;;7.45;0.50;;;9.40;80.00;;;;;;5084085;28;20494;-86
2021/01/21 12:37:03;;;;;;;7.00;0.98;;;9.40;79.90;;;;;;5050291;28;20032;-88
2021/01/21 12:39:29;;;;;;;8.30;0.93;;;9.30;80.10;;;;;;5067156;28;20036;-80
2021/01/21 12:41:56;;;;;;;6.05;1.08;;;9.30;80.00;;;;;;5082585;28;20066;-80
2021/01/21 12:44:22;;;;;;;9.60;0.82;;;9.30;80.20;;;;;;5041440;28;20508;-81
2021/01/21 12:46:50;;;;;;;9.15;0.80;;;9.20;80.40;;;;;;5067726;28;20044;-80
2021/01/21 12:49:17;;;;;;;7.85;0.75;;;9.20;80.10;;;;;;5085124;28;20051;-86
2021/01/21 12:51:44;;;;;;;4.72;0.80;;;9.10;79.90;;;;;;5080626;28;20399;-86
2021/01/21 12:54:10;;;;;;;4.63;0.60;;;9.10;80.10;;;;;;5067787;28;20051;-86
2021/01/21 12:56:37;;;;;;;4.60;0.73;;;9.00;80.50;;;;;;5067093;28;20060;-80
2021/01/21 12:59:03;;;;;;;4.82;0.70;;;9.00;80.90;;;;;;5065047;28;20474;-86
2021/01/21 13:01:30;;;;;;;6.47;0.55;;;8.90;80.90;;;;;;5069747;28;20490;-80
2021/01/21 13:03:56;;;;;;;9.10;0.98;;;8.90;80.80;;;;;;5090287;28;20047;-80
2021/01/21 13:06:23;;;;;;;5.97;0.60;;;8.90;81.50;;;;;;5089871;28;20045;-80
2021/01/21 13:08:50;;;;;;;7.45;0.60;;;9.00;80.90;;;;;;5072788;28;20486;-81
2021/01/21 13:11:16;;;;;;;7.97;0.65;;;9.00;80.50;;;;;;5069310;28;20040;-80
2021/01/21 13:13:44;;;;;;;5.95;0.75;;;9.00;80.60;;;;;;5072825;28;20032;-80
2021/01/21 13:16:11;;;;;;;3.55;0.60;;;9.00;80.60;;;;;;5071689;28;20145;-81
2021/01/21 13:18:37;;;;;;;8.27;0.90;;;9.00;80.60;;;;;;5084481;28;20060;-80
2021/01/21 13:21:04;;;;;;;5.53;0.50;;;9.00;80.40;;;;;;5085940;28;20039;-84
2021/01/21 13:23:32;;;;;;;4.03;0.40;;;9.00;80.00;;;;;;5084512;28;20040;-86